Time;durP1;ratioP1;P1;durP2;ratioP2;P2;SDS_P1;SDS_P2;PMS_P1;PMS_P2;Temp;Humidity;BMP_temperature;BMP_pressure;BME280_temperature;BME280_humidity;BME280_pressure;Samples;Min_cycle;Max_cycle;Signal;HPM_P1;HPM_P2
2020/12/10 00:01:21;;;;;;;;;;;2.70;99.90;;;;;;5091477;28;20278;-69
2020/12/10 00:03:47;;;;;;;;;;;2.70;99.90;;;;;;5094153;28;19970;-68
2020/12/10 00:06:12;;;;;;;;;;;2.70;99.90;;;;;;5093731;28;20283;-68
2020/12/10 00:08:38;;;;;;;;;;;2.80;99.90;;;;;;5083292;28;19954;-70
2020/12/10 00:11:03;;;;;;;;;;;2.70;99.90;;;;;;5073001;28;19909;-70
2020/12/10 00:13:29;;;;;;;;;;;2.80;99.90;;;;;;5074210;28;19913;-68
2020/12/10 00:15:54;;;;;;;;;;;2.80;99.90;;;;;;5072683;28;19961;-68
2020/12/10 00:18:20;;;;;;;;;;;2.80;99.90;;;;;;5071882;28;19919;-67
2020/12/10 00:20:45;;;;;;;;;;;2.80;99.90;;;;;;5070521;28;19916;-69
2020/12/10 00:23:11;;;;;;;;;;;2.80;99.90;;;;;;5072227;28;20004;-66
2020/12/10 00:25:36;;;;;;;;;;;2.80;99.90;;;;;;5072940;28;19916;-69
2020/12/10 00:28:02;;;;;;;;;;;2.80;99.90;;;;;;5074197;28;20000;-68
2020/12/10 00:30:27;;;;;;;;;;;2.80;99.90;;;;;;5071972;28;19932;-69
2020/12/10 00:32:53;;;;;;;;;;;2.70;99.90;;;;;;5083775;28;19916;-67
2020/12/10 00:35:18;;;;;;;;;;;2.60;99.90;;;;;;5092678;28;20589;-69
2020/12/10 00:37:44;;;;;;;;;;;2.60;99.90;;;;;;5091986;28;19954;-68
2020/12/10 00:40:09;;;;;;;;;;;2.60;99.90;;;;;;5092913;28;19934;-68
2020/12/10 00:42:35;;;;;;;;;;;2.60;99.90;;;;;;5076558;28;19919;-67
2020/12/10 00:45:00;;;;;;;;;;;2.50;99.90;;;;;;5078152;28;20022;-68
2020/12/10 00:47:26;;;;;;;;;;;2.50;99.90;;;;;;5093797;28;19958;-69
2020/12/10 00:49:51;;;;;;;;;;;2.50;99.90;;;;;;5091919;28;19909;-69
2020/12/10 00:52:17;;;;;;;;;;;2.50;99.90;;;;;;5093075;28;19973;-70
2020/12/10 00:54:42;;;;;;;;;;;2.50;99.90;;;;;;5093679;28;19950;-70
2020/12/10 00:57:11;;;;;;;;;;;2.50;99.90;;;;;;5093128;28;19934;-69
2020/12/10 00:59:37;;;;;;;;;;;2.50;99.90;;;;;;5093061;28;19908;-69
2020/12/10 01:02:03;;;;;;;;;;;2.50;99.90;;;;;;5093949;28;19912;-70
2020/12/10 01:04:28;;;;;;;;;;;2.50;99.90;;;;;;5074293;28;19958;-69
2020/12/10 01:06:54;;;;;;;;;;;2.50;99.90;;;;;;5091629;28;19934;-68
2020/12/10 01:09:19;;;;;;;;;;;2.50;99.90;;;;;;5076510;28;19913;-66
2020/12/10 01:11:45;;;;;;;;;;;2.50;99.90;;;;;;5073059;28;19981;-69
2020/12/10 01:14:12;;;;;;;;;;;2.60;99.90;;;;;;5072592;28;19909;-69
2020/12/10 01:16:37;;;;;;;;;;;2.70;99.90;;;;;;5072776;28;19961;-69
2020/12/10 01:19:03;;;;;;;;;;;2.70;99.90;;;;;;5071844;28;19912;-67
2020/12/10 01:21:29;;;;;;;;;;;2.70;99.90;;;;;;5072694;28;20369;-69
2020/12/10 01:23:55;;;;;;;;;;;2.70;99.90;;;;;;5072925;28;19909;-69
2020/12/10 01:26:21;;;;;;;;;;;2.70;99.90;;;;;;5072940;28;19923;-68
2020/12/10 01:28:46;;;;;;;;;;;2.70;99.90;;;;;;5072117;28;20285;-68
2020/12/10 01:31:12;;;;;;;;;;;2.70;99.90;;;;;;5071110;28;19920;-69
2020/12/10 01:33:38;;;;;;;;;;;2.80;99.90;;;;;;5072747;28;19913;-70
2020/12/10 01:36:03;;;;;;;;;;;2.70;99.90;;;;;;5069777;28;19919;-69
2020/12/10 01:38:28;;;;;;;;;;;2.60;99.90;;;;;;5073170;28;19960;-69
2020/12/10 01:40:54;;;;;;;;;;;2.60;99.90;;;;;;5073304;28;20230;-68
2020/12/10 01:43:19;;;;;;;;;;;2.50;99.90;;;;;;5071813;28;19912;-67
2020/12/10 01:45:45;;;;;;;;;;;2.50;99.90;;;;;;5070188;28;19912;-68
2020/12/10 01:48:10;;;;;;;;;;;2.40;99.90;;;;;;5072302;28;20348;-69
2020/12/10 01:50:36;;;;;;;;;;;2.20;99.90;;;;;;5071615;28;19969;-70
2020/12/10 01:53:02;;;;;;;;;;;2.20;99.90;;;;;;5072772;28;19908;-69
2020/12/10 01:55:28;;;;;;;;;;;2.30;99.90;;;;;;5072686;28;19912;-70
2020/12/10 01:57:54;;;;;;;;;;;2.30;99.90;;;;;;5072221;28;20834;-69
2020/12/10 02:00:20;;;;;;;;;;;2.20;99.90;;;;;;5071616;28;19909;-69
2020/12/10 02:02:45;;;;;;;;;;;2.20;99.90;;;;;;5069855;28;20403;-69
2020/12/10 02:05:11;;;;;;;;;;;2.30;99.90;;;;;;5068614;28;19912;-69
2020/12/10 02:07:36;;;;;;;;;;;2.30;99.90;;;;;;5071567;28;19920;-69
2020/12/10 02:10:02;;;;;;;;;;;2.30;99.90;;;;;;5071653;28;20327;-69
2020/12/10 02:12:27;;;;;;;;;;;2.30;99.90;;;;;;5070158;28;20002;-69
2020/12/10 02:14:53;;;;;;;;;;;2.40;99.90;;;;;;5070212;28;19938;-66
2020/12/10 02:17:18;;;;;;;;;;;2.30;99.90;;;;;;5070438;28;19908;-69
2020/12/10 02:19:46;;;;;;;;;;;2.30;99.90;;;;;;5070137;28;20314;-68
2020/12/10 02:22:11;;;;;;;;;;;2.30;99.90;;;;;;5071170;28;19952;-68
2020/12/10 02:24:37;;;;;;;;;;;2.30;99.90;;;;;;5071020;28;19935;-68
2020/12/10 02:27:02;;;;;;;;;;;2.30;99.90;;;;;;5071355;28;20010;-70
2020/12/10 02:29:28;;;;;;;;;;;2.40;99.90;;;;;;5070880;28;20421;-69
2020/12/10 02:31:53;;;;;;;;;;;2.50;99.90;;;;;;5070323;28;19951;-68
2020/12/10 02:34:19;;;;;;;;;;;2.50;99.90;;;;;;5070407;28;19915;-68
2020/12/10 02:36:44;;;;;;;;;;;2.50;99.90;;;;;;5070046;28;19912;-69
2020/12/10 02:39:10;;;;;;;;;;;2.50;99.90;;;;;;5070595;28;20388;-69
2020/12/10 02:41:36;;;;;;;;;;;2.50;99.90;;;;;;5072173;28;19923;-69
2020/12/10 02:44:02;;;;;;;;;;;2.50;99.90;;;;;;5086773;28;19912;-68
2020/12/10 02:46:28;;;;;;;;;;;2.60;99.90;;;;;;5071138;28;19917;-70
2020/12/10 02:48:53;;;;;;;;;;;2.60;99.90;;;;;;5069575;28;20277;-67
2020/12/10 02:51:19;;;;;;;;;;;2.80;99.90;;;;;;5070559;28;19913;-69
2020/12/10 02:53:44;;;;;;;;;;;2.80;99.90;;;;;;5068345;28;19931;-70
2020/12/10 02:56:10;;;;;;;;;;;2.70;99.90;;;;;;5068501;28;20372;-69
2020/12/10 02:58:36;;;;;;;;;;;2.70;99.90;;;;;;5068279;28;20280;-69
2020/12/10 03:01:02;;;;;;;;;;;2.70;99.90;;;;;;5032750;28;19908;-68
2020/12/10 03:03:28;;;;;;;;;;;2.70;99.90;;;;;;5068605;28;19955;-67
2020/12/10 03:05:53;;;;;;;;;;;2.70;99.90;;;;;;5068553;28;19955;-68
2020/12/10 03:08:19;;;;;;;;;;;2.80;99.90;;;;;;5068257;28;19916;-68
2020/12/10 03:10:44;;;;;;;;;;;2.80;99.90;;;;;;5069941;28;19912;-68
2020/12/10 03:13:10;;;;;;;;;;;2.90;99.90;;;;;;5070032;28;19923;-68
2020/12/10 03:15:35;;;;;;;;;;;2.90;99.90;;;;;;5069394;28;19913;-68
2020/12/10 03:18:01;;;;;;;;;;;2.80;99.90;;;;;;5069634;28;19966;-68
2020/12/10 03:20:26;;;;;;;;;;;2.80;99.90;;;;;;5067978;28;19927;-67
2020/12/10 03:22:52;;;;;;;;;;;2.70;99.90;;;;;;5069260;28;20447;-67
2020/12/10 03:25:17;;;;;;;;;;;2.70;99.90;;;;;;5069333;28;19913;-69
2020/12/10 03:27:43;;;;;;;;;;;2.70;99.90;;;;;;5070099;28;20588;-69
2020/12/10 03:30:09;;;;;;;;;;;2.70;99.90;;;;;;5072914;28;19908;-69
2020/12/10 03:32:34;;;;;;;;;;;2.60;99.90;;;;;;5089306;28;19909;-69
2020/12/10 03:35:01;;;;;;;;;;;2.60;99.90;;;;;;5072253;28;20432;-68
2020/12/10 03:37:27;;;;;;;;;;;2.60;99.90;;;;;;5073639;28;19916;-69
2020/12/10 03:39:53;;;;;;;;;;;2.70;99.90;;;;;;5072696;28;19931;-70
2020/12/10 03:42:18;;;;;;;;;;;2.70;99.90;;;;;;5074175;28;19940;-69
2020/12/10 03:44:44;;;;;;;;;;;2.70;99.90;;;;;;5071679;28;19916;-67
2020/12/10 03:47:09;;;;;;;;;;;2.70;99.90;;;;;;5071983;28;20004;-69
2020/12/10 03:49:35;;;;;;;;;;;2.70;99.90;;;;;;5071799;28;19939;-69
2020/12/10 03:52:00;;;;;;;;;;;2.70;99.90;;;;;;5071740;28;20018;-68
2020/12/10 03:54:26;;;;;;;;;;;2.70;99.90;;;;;;5072977;28;19909;-68
2020/12/10 03:56:51;;;;;;;;;;;2.70;99.90;;;;;;5074037;28;19912;-69
2020/12/10 03:59:17;;;;;;;;;;;2.80;99.90;;;;;;5072293;28;19956;-69
2020/12/10 04:01:42;;;;;;;;;;;2.80;99.90;;;;;;5073339;28;19944;-68
2020/12/10 04:04:08;;;;;;;;;;;2.80;99.90;;;;;;5073743;28;19921;-69
2020/12/10 04:06:33;;;;;;;;;;;2.70;99.90;;;;;;5073466;28;19916;-67
2020/12/10 04:09:00;;;;;;;;;;;2.70;99.90;;;;;;5073963;28;20391;-68
2020/12/10 04:11:26;;;;;;;;;;;2.60;99.90;;;;;;5074075;28;19928;-69
2020/12/10 04:13:51;;;;;;;;;;;2.60;99.90;;;;;;5073848;28;19939;-69
2020/12/10 04:16:17;;;;;;;;;;;2.60;99.90;;;;;;5073027;28;19969;-69
2020/12/10 04:18:43;;;;;;;;;;;2.60;99.90;;;;;;5071942;28;19924;-69
2020/12/10 04:21:09;;;;;;;;;;;2.50;99.90;;;;;;5071881;28;19921;-69
2020/12/10 04:23:35;;;;;;;;;;;2.50;99.90;;;;;;5071887;28;19915;-69
2020/12/10 04:26:00;;;;;;;;;;;2.50;99.90;;;;;;5072730;28;19917;-68
2020/12/10 04:28:26;;;;;;;;;;;2.50;99.90;;;;;;5071706;28;19912;-68
2020/12/10 04:30:52;;;;;;;;;;;2.50;99.90;;;;;;5073586;28;19909;-68
2020/12/10 04:33:17;;;;;;;;;;;2.50;99.90;;;;;;5088803;28;19959;-68
2020/12/10 04:35:43;;;;;;;;;;;2.50;99.90;;;;;;5073100;28;19919;-68
2020/12/10 04:38:08;;;;;;;;;;;2.40;99.90;;;;;;5073529;28;19913;-69
2020/12/10 04:40:34;;;;;;;;;;;2.40;99.90;;;;;;5073975;28;19962;-68
2020/12/10 04:43:03;;;;;;;;;;;2.40;99.90;;;;;;5073529;28;20369;-68
2020/12/10 04:45:29;;;;;;;;;;;2.40;99.90;;;;;;5072690;28;20007;-69
2020/12/10 04:47:55;;;;;;;;;;;2.40;99.90;;;;;;5072977;28;20003;-68
2020/12/10 04:50:23;;;;;;;;;;;2.40;99.90;;;;;;5072513;28;19912;-68
2020/12/10 04:52:50;;;;;;;;;;;2.40;99.90;;;;;;5069609;28;19931;-68
2020/12/10 04:55:16;;;;;;;;;;;2.50;99.90;;;;;;5083749;28;19955;-67
2020/12/10 04:57:42;;;;;;;;;;;2.50;99.90;;;;;;5080247;28;20032;-68
2020/12/10 05:00:08;;;;;;;;;;;2.50;99.90;;;;;;5071884;28;20269;-68
2020/12/10 05:02:34;;;;;;;;;;;2.50;99.90;;;;;;5072670;28;19920;-68
2020/12/10 05:04:59;;;;;;;;;;;2.50;99.90;;;;;;5072059;28;19953;-68
2020/12/10 05:07:38;;;;;;;;;;;2.50;99.90;;;;;;5073162;28;19965;-68
2020/12/10 05:10:03;;;;;;;;;;;2.50;99.90;;;;;;5071364;28;20007;-70
2020/12/10 05:12:28;;;;;;;;;;;2.50;99.90;;;;;;5070874;28;20569;-68
2020/12/10 05:14:54;;;;;;;;;;;2.50;99.90;;;;;;5071261;28;19980;-68
2020/12/10 05:17:20;;;;;;;;;;;2.50;99.90;;;;;;5072370;28;19908;-68
2020/12/10 05:19:54;;;;;;;;;;;2.50;99.90;;;;;;5071533;28;20324;-68
2020/12/10 05:22:20;;;;;;;;;;;2.50;99.90;;;;;;5072038;28;20002;-68
2020/12/10 05:24:45;;;;;;;;;;;2.50;99.90;;;;;;5072204;28;20473;-68
2020/12/10 05:27:13;;;;;;;;;;;2.50;99.90;;;;;;5071350;28;20393;-68
2020/12/10 05:29:39;;;;;;;;;;;2.50;99.90;;;;;;5071525;28;20317;-67
2020/12/10 05:32:04;;;;;;;;;;;2.50;99.90;;;;;;5072765;28;19932;-69
2020/12/10 05:34:30;;;;;;;;;;;2.50;99.90;;;;;;5071013;28;20009;-68
2020/12/10 05:36:55;;;;;;;;;;;2.50;99.90;;;;;;5072303;28;19966;-68
2020/12/10 05:39:21;;;;;;;;;;;2.50;99.90;;;;;;5071891;28;19923;-69
2020/12/10 05:41:52;;;;;;;;;;;2.50;99.90;;;;;;5071794;28;19935;-68
2020/12/10 05:44:18;;;;;;;;;;;2.50;99.90;;;;;;5071423;28;19987;-68
2020/12/10 05:46:44;;;;;;;;;;;2.50;99.90;;;;;;5072157;28;19927;-67
2020/12/10 05:49:11;;;;;;;;;;;2.50;99.90;;;;;;5071100;28;19912;-68
2020/12/10 05:51:40;;;;;;;;;;;2.50;99.90;;;;;;5070235;28;20377;-69
2020/12/10 05:54:08;;;;;;;;;;;2.50;99.90;;;;;;5070255;28;19912;-68
2020/12/10 05:56:37;;;;;;;;;;;2.40;99.90;;;;;;5085097;28;19913;-68
2020/12/10 05:59:03;;;;;;;;;;;2.40;99.90;;;;;;5085299;28;19908;-68
2020/12/10 06:01:32;;;;;;;;;;;2.40;99.90;;;;;;5070844;28;19915;-68
2020/12/10 06:03:57;;;;;;;;;;;2.40;99.90;;;;;;5085498;22;19920;-72
2020/12/10 06:06:25;;;;;;;;;;;2.30;99.90;;;;;;5029984;28;19928;-72
2020/12/10 06:08:51;;;;;;;;;;;2.30;99.90;;;;;;5048258;28;19963;-75
2020/12/10 06:11:20;;;;;;;;;;;2.30;99.90;;;;;;5030213;28;20334;-74
2020/12/10 06:13:46;;;;;;;;;;;2.30;99.90;;;;;;5048158;28;19967;-74
2020/12/10 06:16:18;;;;;;;;;;;2.20;99.90;;;;;;5028601;28;20317;-74
2020/12/10 06:18:53;;;;;;;;;;;2.20;99.90;;;;;;5027878;28;19920;-73
2020/12/10 06:21:35;;;;;;;;;;;2.20;99.90;;;;;;5028528;28;19916;-74
2020/12/10 06:24:20;;;;;;;;;;;2.10;99.90;;;;;;5028431;28;19909;-73
2020/12/10 06:26:47;;;;;;;;;;;2.10;99.90;;;;;;5028732;28;20350;-74
2020/12/10 06:29:31;;;;;;;;;;;2.10;99.90;;;;;;5028711;28;19910;-74
2020/12/10 06:32:04;;;;;;;;;;;2.00;99.90;;;;;;5028978;28;19913;-74
2020/12/10 06:34:34;;;;;;;;;;;2.00;99.90;;;;;;5026879;28;20013;-74
2020/12/10 06:37:16;;;;;;;;;;;2.10;99.90;;;;;;5028363;28;20392;-72
2020/12/10 06:39:41;;;;;;;;;;;2.10;99.90;;;;;;5028156;28;19920;-74
2020/12/10 06:42:07;;;;;;;;;;;2.10;99.90;;;;;;5028595;28;19984;-75
2020/12/10 06:44:34;;;;;;;;;;;2.00;99.90;;;;;;5027042;28;19949;-74
2020/12/10 06:46:59;;;;;;;;;;;1.90;99.90;;;;;;5027730;28;19924;-74
2020/12/10 06:49:29;;;;;;;;;;;1.80;99.90;;;;;;5027205;28;20050;-73
2020/12/10 06:52:12;;;;;;;;;;;1.80;99.90;;;;;;5027625;28;19913;-71
2020/12/10 06:54:57;;;;;;;;;;;1.80;99.90;;;;;;5009851;28;19940;-71
2020/12/10 06:57:23;;;;;;;;;;;1.90;99.90;;;;;;5013537;28;19971;-72
2020/12/10 06:59:48;;;;;;;;;;;1.90;99.90;;;;;;5027341;28;19909;-73
2020/12/10 07:02:16;;;;;;;;;;;1.90;99.90;;;;;;5028128;28;19963;-73
2020/12/10 07:04:50;;;;;;;;;;;2.00;99.90;;;;;;5027161;28;19970;-74
2020/12/10 07:07:23;;;;;;;;;;;2.00;99.90;;;;;;5027335;28;19917;-74
2020/12/10 07:09:53;;;;;;;;;;;2.00;99.90;;;;;;5021341;28;19916;-71
2020/12/10 07:12:19;;;;;;;;;;;1.90;99.90;;;;;;5027706;28;20008;-71
2020/12/10 07:14:44;;;;;;;;;;;1.80;99.90;;;;;;5027541;28;19910;-71
2020/12/10 07:17:10;;;;;;;;;;;1.60;99.90;;;;;;5028053;28;19913;-72
2020/12/10 07:19:36;;;;;;;;;;;1.70;99.90;;;;;;5008707;28;19993;-74
2020/12/10 07:22:01;;;;;;;;;;;1.80;99.90;;;;;;5027769;28;20382;-76
2020/12/10 07:24:27;;;;;;;;;;;1.70;99.90;;;;;;5027795;28;19913;-71
2020/12/10 07:26:52;;;;;;;;;;;1.70;99.90;;;;;;5028306;28;20370;-73
2020/12/10 07:29:18;;;;;;;;;;;1.70;99.90;;;;;;5027539;28;19920;-73
2020/12/10 07:31:43;;;;;;;;;;;1.70;99.90;;;;;;5027676;28;19913;-72
2020/12/10 07:34:11;;;;;;;;;;;1.70;99.90;;;;;;5027137;28;20036;-73
2020/12/10 07:36:45;;;;;;;;;;;1.60;99.90;;;;;;5009620;28;19917;-73
2020/12/10 07:39:10;;;;;;;;;;;1.50;99.90;;;;;;5027459;28;20315;-73
2020/12/10 07:41:36;;;;;;;;;;;1.50;99.90;;;;;;5027322;28;19936;-72
2020/12/10 07:44:02;;;;;;;;;;;1.60;99.90;;;;;;5027255;28;19909;-72
2020/12/10 07:46:33;;;;;;;;;;;1.70;99.90;;;;;;5027638;28;19936;-73
2020/12/10 07:48:59;;;;;;;;;;;1.60;99.90;;;;;;5025785;28;19987;-73
2020/12/10 07:51:24;;;;;;;;;;;1.70;99.90;;;;;;5027598;28;20448;-73
2020/12/10 07:53:50;;;;;;;;;;;1.80;99.90;;;;;;5026965;28;19909;-73
2020/12/10 07:56:20;;;;;;;;;;;1.80;99.90;;;;;;5031855;28;20007;-73
2020/12/10 07:58:45;;;;;;;;;;;1.90;99.90;;;;;;5037153;28;20011;-72
2020/12/10 08:01:12;;;;;;;;;;;2.00;99.90;;;;;;5035624;28;20015;-73
2020/12/10 08:03:41;;;;;;;;;;;2.10;99.90;;;;;;5035094;28;19980;-72
2020/12/10 08:06:08;;;;;;;;;;;2.10;99.90;;;;;;5032376;28;19935;-74
2020/12/10 08:08:36;;;;;;;;;;;2.20;99.90;;;;;;5035555;28;19991;-72
2020/12/10 08:11:12;;;;;;;;;;;2.20;99.90;;;;;;5034025;28;19952;-71
2020/12/10 08:13:51;;;;;;;;;;;2.30;99.90;;;;;;5035368;28;19996;-72
2020/12/10 08:16:16;;;;;;;;;;;2.40;99.90;;;;;;5039017;28;19917;-72
2020/12/10 08:18:42;;;;;;;;;;;2.50;99.90;;;;;;5038116;28;19917;-72
2020/12/10 08:21:07;;;;;;;;;;;2.40;99.90;;;;;;5039819;28;19909;-71
2020/12/10 08:23:44;;;;;;;;;;;2.40;99.90;;;;;;5039138;28;19913;-69
2020/12/10 08:26:11;;;;;;;;;;;2.30;99.90;;;;;;5051295;28;19943;-70
2020/12/10 08:28:36;;;;;;;;;;;2.30;99.90;;;;;;5050199;28;20143;-70
2020/12/10 08:31:02;;;;;;;;;;;2.40;99.90;;;;;;5050838;28;19983;-70
2020/12/10 08:33:37;;;;;;;;;;;2.40;99.90;;;;;;5050626;28;19909;-70
2020/12/10 08:36:03;;;;;;;;;;;2.40;99.90;;;;;;5032616;28;19925;-70
2020/12/10 08:38:29;;;;;;;;;;;2.50;99.90;;;;;;5050336;28;19950;-70
2020/12/10 08:40:55;;;;;;;;;;;2.50;99.90;;;;;;5050399;28;19908;-70
2020/12/10 08:43:21;;;;;;;;;;;2.60;99.90;;;;;;5050448;28;20318;-70
2020/12/10 08:45:47;;;;;;;;;;;2.60;99.90;;;;;;5050508;28;19917;-70
2020/12/10 08:48:14;;;;;;;;;;;2.70;99.90;;;;;;5050636;28;19935;-70
2020/12/10 08:50:56;;;;;;;;;;;2.60;99.90;;;;;;5049901;28;20015;-70
2020/12/10 08:53:22;;;;;;;;;;;2.60;99.90;;;;;;5050136;28;19912;-70
2020/12/10 08:55:49;;;;;;;;;;;2.60;99.90;;;;;;5050164;28;19916;-70
2020/12/10 08:58:15;;;;;;;;;;;2.60;99.90;;;;;;5049806;28;19980;-70
2020/12/10 09:00:40;;;;;;;;;;;2.60;99.90;;;;;;5049813;28;19948;-69
2020/12/10 09:03:06;;;;;;;;;;;2.60;99.90;;;;;;5050447;28;20015;-69
2020/12/10 09:05:31;;;;;;;;;;;2.60;99.90;;;;;;5049409;28;19935;-69
2020/12/10 09:07:57;;;;;;;;;;;2.60;99.90;;;;;;5045034;28;20374;-69
2020/12/10 09:10:26;;;;;;;;;;;2.50;99.90;;;;;;5033966;28;19914;-69
2020/12/10 09:12:52;;;;;;;;;;;2.60;99.90;;;;;;5033030;28;19917;-73
2020/12/10 09:15:17;;;;;;;;;;;2.60;99.90;;;;;;5036587;28;19924;-73
2020/12/10 09:17:43;;;;;;;;;;;2.70;99.90;;;;;;5039638;28;19913;-73
2020/12/10 09:20:08;;;;;;;;;;;2.80;99.90;;;;;;5038327;28;20008;-73
2020/12/10 09:22:34;;;;;;;;;;;2.90;99.90;;;;;;5037704;28;19966;-73
2020/12/10 09:25:00;;;;;;;;;;;2.80;99.90;;;;;;5033383;28;19932;-73
2020/12/10 09:27:25;;;;;;;;;;;2.70;99.90;;;;;;5049587;28;19916;-71
2020/12/10 09:29:51;;;;;;;;;;;2.70;99.90;;;;;;5024909;28;20715;-71
2020/12/10 09:32:16;;;;;;;;;;;2.70;99.90;;;;;;5030277;28;20012;-71
2020/12/10 09:34:42;;;;;;;;;;;2.60;99.90;;;;;;5029386;28;19913;-71
2020/12/10 09:37:07;;;;;;;;;;;2.50;99.90;;;;;;5029429;28;19924;-71
2020/12/10 09:39:35;;;;;;;;;;;2.60;99.90;;;;;;5028740;28;19961;-71
2020/12/10 09:42:01;;;;;;;;;;;2.70;99.90;;;;;;5030289;28;19909;-71
2020/12/10 09:44:27;;;;;;;;;;;2.80;99.90;;;;;;5028972;28;20366;-71
2020/12/10 09:46:52;;;;;;;;;;;2.90;99.90;;;;;;5029632;28;19920;-71
2020/12/10 09:49:18;;;;;;;;;;;3.00;99.90;;;;;;5038443;28;19917;-71
2020/12/10 09:51:49;;;;;;;;;;;3.00;99.90;;;;;;5032527;28;19917;-71
2020/12/10 09:59:30;;;;;;;;;;;2.90;99.90;;;;;;5018915;28;19920;-71
2020/12/10 10:01:56;;;;;;;;;;;3.00;99.90;;;;;;5020115;28;20117;-71
2020/12/10 10:04:21;;;;;;;;;;;3.00;99.90;;;;;;5023388;28;19917;-71
2020/12/10 10:06:48;;;;;;;;;;;3.00;99.90;;;;;;5021754;28;19917;-71
2020/12/10 10:09:14;;;;;;;;;;;2.90;99.90;;;;;;5018706;28;20262;-71
2020/12/10 10:11:39;;;;;;;;;;;2.70;99.90;;;;;;5018504;28;19913;-71
2020/12/10 10:14:05;;;;;;;;;;;2.80;99.90;;;;;;5017938;28;19924;-71
2020/12/10 10:16:31;;;;;;;;;;;2.80;99.90;;;;;;5017383;28;20330;-71
2020/12/10 10:18:56;;;;;;;;;;;2.80;99.90;;;;;;5015533;28;20015;-71
2020/12/10 10:21:23;;;;;;;;;;;2.80;99.90;;;;;;5018214;28;19925;-71
2020/12/10 10:23:48;;;;;;;;;;;2.70;99.90;;;;;;5020589;28;20282;-71
2020/12/10 10:26:14;;;;;;;;;;;2.60;99.90;;;;;;5016879;28;19924;-71
2020/12/10 10:28:40;;;;;;;;;;;2.60;99.90;;;;;;5019389;28;20355;-71
2020/12/10 10:31:09;;;;;;;;;;;2.70;99.90;;;;;;5016314;28;19944;-71
2020/12/10 10:33:34;;;;;;;;;;;2.60;99.90;;;;;;5001046;28;20337;-74
2020/12/10 10:36:01;;;;;;;;;;;2.70;99.90;;;;;;5017319;28;19913;-74
2020/12/10 10:38:27;;;;;;;;;;;2.80;99.90;;;;;;5016931;28;19989;-74
2020/12/10 10:40:53;;;;;;;;;;;2.90;99.90;;;;;;5018275;28;20055;-74
2020/12/10 10:43:18;;;;;;;;;;;3.00;99.90;;;;;;5016984;28;19917;-73
2020/12/10 10:45:44;;;;;;;;;;;3.10;99.90;;;;;;5019772;28;20189;-74
2020/12/10 10:48:09;;;;;;;;;;;3.20;99.90;;;;;;5021739;28;19913;-73
2020/12/10 10:50:35;;;;;;;;;;;3.30;99.90;;;;;;5026071;28;19914;-73
2020/12/10 10:53:00;;;;;;;;;;;3.40;99.90;;;;;;5012823;28;20358;-73
2020/12/10 10:55:26;;;;;;;;;;;3.50;99.90;;;;;;5010980;28;20008;-73
2020/12/10 10:57:52;;;;;;;;;;;3.50;99.90;;;;;;5007805;28;19971;-72
2020/12/10 11:00:17;;;;;;;;;;;3.50;99.90;;;;;;5007945;28;20036;-73
2020/12/10 11:02:43;;;;;;;;;;;3.40;99.90;;;;;;5008493;28;19914;-73
2020/12/10 11:05:08;;;;;;;;;;;3.40;99.90;;;;;;5007461;28;20052;-74
2020/12/10 11:07:36;;;;;;;;;;;3.40;99.90;;;;;;5008626;28;19917;-74
2020/12/10 11:10:02;;;;;;;;;;;3.50;99.90;;;;;;5023960;28;20378;-74
2020/12/10 11:12:27;;;;;;;;;;;3.60;99.90;;;;;;5011037;28;19913;-74
2020/12/10 11:14:53;;;;;;;;;;;3.60;99.90;;;;;;5028684;28;19920;-73
2020/12/10 11:17:18;;;;;;;;;;;3.60;99.90;;;;;;5028108;28;19913;-75
2020/12/10 11:19:44;;;;;;;;;;;3.60;99.90;;;;;;5028298;28;20012;-74
2020/12/10 11:22:10;;;;;;;;;;;3.60;99.90;;;;;;5029344;28;19909;-74
2020/12/10 11:24:35;;;;;;;;;;;3.60;99.90;;;;;;5028990;28;20374;-74
2020/12/10 11:27:01;;;;;;;;;;;3.70;99.90;;;;;;5028413;28;19917;-74
2020/12/10 11:29:26;;;;;;;;;;;3.80;99.90;;;;;;5027447;28;19917;-75
2020/12/10 11:31:55;;;;;;;;;;;3.80;99.90;;;;;;5028067;28;20271;-73
2020/12/10 11:34:21;;;;;;;;;;;3.90;99.90;;;;;;5007464;28;20017;-74
2020/12/10 11:36:46;;;;;;;;;;;4.00;99.90;;;;;;5018014;28;19995;-74
2020/12/10 11:39:12;;;;;;;;;;;4.00;99.90;;;;;;5021204;28;20298;-73
2020/12/10 11:41:38;;;;;;;;;;;4.00;99.90;;;;;;5028228;28;19909;-73
2020/12/10 11:44:03;;;;;;;;;;;4.00;99.90;;;;;;5027802;28;19919;-73
2020/12/10 11:46:29;;;;;;;;;;;4.10;99.90;;;;;;5027960;28;19914;-74
2020/12/10 11:48:55;;;;;;;;;;;4.10;99.90;;;;;;5028157;28;20274;-73
2020/12/10 11:51:20;;;;;;;;;;;4.10;99.90;;;;;;5032202;28;19925;-74
2020/12/10 11:53:48;;;;;;;;;;;4.10;99.90;;;;;;5031819;28;19914;-73
2020/12/10 11:56:14;;;;;;;;;;;4.20;99.90;;;;;;5031462;28;19913;-73
2020/12/10 11:58:39;;;;;;;;;;;4.30;99.90;;;;;;5030652;28;20309;-74
2020/12/10 12:01:05;;;;;;;;;;;4.30;99.90;;;;;;5031070;28;19935;-73
2020/12/10 12:03:30;;;;;;;;;;;4.40;99.90;;;;;;5031998;28;19924;-73
2020/12/10 12:05:56;;;;;;;;;;;4.50;99.90;;;;;;5031373;28;19970;-73
2020/12/10 12:08:25;;;;;;;;;;;4.50;99.90;;;;;;5031388;28;19914;-74
2020/12/10 12:10:51;;;;;;;;;;;4.50;99.90;;;;;;5031844;28;20106;-74
2020/12/10 12:13:17;;;;;;;;;;;4.50;99.90;;;;;;5031537;28;20016;-73
2020/12/10 12:15:42;;;;;;;;;;;4.50;99.90;;;;;;5030725;28;20000;-73
2020/12/10 12:18:08;;;;;;;;;;;4.50;99.90;;;;;;5031487;28;20003;-73
2020/12/10 12:20:33;;;;;;;;;;;4.50;99.90;;;;;;5030236;28;19999;-73
2020/12/10 12:22:59;;;;;;;;;;;4.50;99.90;;;;;;5030963;28;19923;-73
2020/12/10 12:25:24;;;;;;;;;;;4.40;99.90;;;;;;5031118;28;19909;-73
2020/12/10 12:27:50;;;;;;;;;;;4.40;99.90;;;;;;5030867;28;20008;-74
2020/12/10 12:30:16;;;;;;;;;;;4.30;99.90;;;;;;5030562;28;20027;-74
2020/12/10 12:32:41;;;;;;;;;;;4.30;99.90;;;;;;5031648;28;19909;-74
2020/12/10 12:35:07;;;;;;;;;;;4.30;99.90;;;;;;5030228;28;20036;-73
2020/12/10 12:37:32;;;;;;;;;;;4.30;99.90;;;;;;5030209;28;19944;-74
2020/12/10 12:39:58;;;;;;;;;;;4.30;99.90;;;;;;5030530;28;19909;-74
2020/12/10 12:42:23;;;;;;;;;;;4.30;99.90;;;;;;5031100;28;19921;-74
2020/12/10 12:44:49;;;;;;;;;;;4.30;99.90;;;;;;5029990;28;19910;-74
2020/12/10 12:47:15;;;;;;;;;;;4.30;99.90;;;;;;5030237;28;19932;-73
2020/12/10 12:49:41;;;;;;;;;;;4.30;99.90;;;;;;5029480;28;19909;-74
2020/12/10 12:52:07;;;;;;;;;;;4.30;99.90;;;;;;5030604;28;20435;-74
2020/12/10 12:54:33;;;;;;;;;;;4.30;99.90;;;;;;5030353;28;19913;-72
2020/12/10 12:56:58;;;;;;;;;;;4.20;99.90;;;;;;5030414;28;19996;-73
2020/12/10 12:59:24;;;;;;;;;;;4.20;99.90;;;;;;5029150;28;20004;-73
2020/12/10 13:01:49;;;;;;;;;;;4.20;99.90;;;;;;5030163;28;19917;-73
2020/12/10 13:04:20;;;;;;;;;;;4.30;99.90;;;;;;5029590;28;19921;-73
2020/12/10 13:06:46;;;;;;;;;;;4.30;99.90;;;;;;5038287;28;20000;-72
2020/12/10 13:09:12;;;;;;;;;;;4.20;99.90;;;;;;5039550;28;19995;-73
2020/12/10 13:11:38;;;;;;;;;;;4.00;99.90;;;;;;5036615;28;20370;-73
2020/12/10 13:14:04;;;;;;;;;;;3.90;99.90;;;;;;5037578;28;19921;-73
2020/12/10 13:16:29;;;;;;;;;;;3.90;99.90;;;;;;5040539;28;19909;-73
2020/12/10 13:18:55;;;;;;;;;;;3.90;99.90;;;;;;5037271;28;20008;-73
2020/12/10 13:21:21;;;;;;;;;;;3.90;99.90;;;;;;5038230;28;19931;-74
2020/12/10 13:23:47;;;;;;;;;;;3.90;99.90;;;;;;5042082;28;19917;-73
2020/12/10 13:26:12;;;;;;;;;;;4.00;99.90;;;;;;5041804;28;20104;-73
2020/12/10 13:28:38;;;;;;;;;;;4.00;99.90;;;;;;5088271;22;19924;-71
2020/12/10 13:31:04;;;;;;;;;;;4.00;99.90;;;;;;5063669;28;19917;-71
2020/12/10 13:33:29;;;;;;;;;;;4.00;99.90;;;;;;5059244;28;19999;-72
2020/12/10 13:35:55;;;;;;;;;;;4.00;99.90;;;;;;5060372;28;19909;-72
2020/12/10 13:38:20;;;;;;;;;;;3.90;99.90;;;;;;5060755;28;19912;-72
2020/12/10 13:40:46;;;;;;;;;;;3.90;99.90;;;;;;5063274;28;19909;-71
2020/12/10 13:43:11;;;;;;;;;;;3.90;99.90;;;;;;5083523;28;19912;-71
2020/12/10 13:45:37;;;;;;;;;;;3.90;99.90;;;;;;5089234;28;19999;-71
2020/12/10 13:48:02;;;;;;;;;;;3.90;99.90;;;;;;5089574;28;20283;-71
2020/12/10 13:50:28;;;;;;;;;;;3.90;99.90;;;;;;5088510;28;19908;-70
2020/12/10 13:52:53;;;;;;;;;;;3.90;99.90;;;;;;5089419;28;19908;-71
2020/12/10 13:55:19;;;;;;;;;;;3.90;99.90;;;;;;5089129;28;19927;-71
2020/12/10 13:57:45;;;;;;;;;;;3.90;99.90;;;;;;5088959;28;20280;-71
2020/12/10 14:00:11;;;;;;;;;;;3.90;99.90;;;;;;5088753;28;19940;-71
2020/12/10 14:02:37;;;;;;;;;;;3.90;99.90;;;;;;5080232;28;19948;-72
2020/12/10 14:05:02;;;;;;;;;;;3.90;99.90;;;;;;5068050;28;20003;-72
2020/12/10 14:07:28;;;;;;;;;;;3.90;99.90;;;;;;5068683;28;19922;-71
2020/12/10 14:09:53;;;;;;;;;;;3.90;99.90;;;;;;5073554;28;19920;-71
2020/12/10 14:12:19;;;;;;;;;;;3.80;99.90;;;;;;5068596;28;19916;-71
2020/12/10 14:14:44;;;;;;;;;;;3.90;99.90;;;;;;5068479;28;20008;-71
2020/12/10 14:17:18;;;;;;;;;;;3.90;99.90;;;;;;5068628;28;19956;-72
2020/12/10 14:19:44;;;;;;;;;;;3.70;99.90;;;;;;5068373;28;19912;-71
2020/12/10 14:22:10;;;;;;;;;;;3.70;99.90;;;;;;5069346;28;19912;-72
2020/12/10 14:24:36;;;;;;;;;;;3.70;99.90;;;;;;5069492;28;19908;-71
2020/12/10 14:27:01;;;;;;;;;;;3.60;99.90;;;;;;5069023;28;20053;-70
2020/12/10 14:29:28;;;;;;;;;;;3.70;99.90;;;;;;5066932;28;19966;-70
2020/12/10 14:31:53;;;;;;;;;;;3.70;99.90;;;;;;5068159;28;20269;-71